Terminal Aerodrome Forecast
Issued by NWS Paducah, KY

Home | Current Version | Previous Version | Text Only | Print | Product List | Glossary On
Versions: 1 2 3 4 5 6 7 8 9 10 11 12 13 14 15
000
FTUS43 KPAH 230223 AAA
TAFPAH
TAF AMD
KPAH 230223Z 2302/2324 02009KT P6SM VCSH OVC035
     FM230800 02010KT P6SM OVC035
     FM231400 03014G21KT P6SM SCT045=

USA.gov is the U.S. government's official web portal to all federal, state and local government web resources and services.